Madison, Florida
Current Conditions -  °F | °C
As of 6:53 PM on Monday 20 Oct 2014 (Local Time) from KVLD Reporting Station
Clear Clear  
Wind Chill: 73°   Ceiling: Unl
Heat Index: 73°   Visibility: 10mi
Dew Point: 63°   Wind: 0mph
Humidity: 71%   Direction: NA
Pressure: 29.96"   Gusts: NA
Location:  30.47°N, 83.42°W
Report Text: KVLD 202253Z AUTO 00000KT 10SM CLR 23/17 A2996 RMK AO2 SLP151 T02280172 TSNO
Loading
Personal Weather Stations






























Interactive Weather Map
Tropical Storm Tracking
New forecast layout! Learn more

10-Day Weather Forecast

Advertisements
Track Severe Weather on mobile